createdAt,value
2022-09-07T00:01:43.168Z,5.90
2022-09-07T00:04:29.800Z,6.03
2022-09-07T00:07:16.250Z,6.33
2022-09-07T00:10:04.013Z,6.77
2022-09-07T00:12:51.174Z,6.57
2022-09-07T00:15:41.070Z,6.73
2022-09-07T00:18:27.629Z,6.43
2022-09-07T00:21:15.645Z,6.37
2022-09-07T00:24:02.046Z,6.50
2022-09-07T00:26:49.768Z,6.27
2022-09-07T00:29:36.406Z,6.03
2022-09-07T00:32:23.298Z,6.37
2022-09-07T00:35:12.220Z,6.50
2022-09-07T00:37:59.228Z,6.40
2022-09-07T00:40:46.028Z,6.97
2022-09-07T00:43:38.386Z,6.57
2022-09-07T00:46:26.482Z,7.00
2022-09-07T00:49:17.301Z,6.87
2022-09-07T00:52:07.818Z,5.83
2022-09-07T00:54:57.626Z,6.80
2022-09-07T00:57:49.244Z,6.47
2022-09-07T01:00:37.315Z,6.63
2022-09-07T01:03:28.432Z,6.83
2022-09-07T01:06:18.545Z,6.60
2022-09-07T01:09:07.749Z,6.20
2022-09-07T01:11:55.799Z,6.93
2022-09-07T01:14:46.276Z,6.70
2022-09-07T01:17:45.179Z,6.30
2022-09-07T01:20:41.523Z,6.33
2022-09-07T01:24:15.489Z,6.50
2022-09-07T01:27:39.317Z,6.77
2022-09-07T01:30:26.691Z,6.77
2022-09-07T01:33:38.662Z,6.57
2022-09-07T01:36:33.604Z,6.50
2022-09-07T01:39:24.611Z,6.03
2022-09-07T01:42:13.630Z,6.30
2022-09-07T01:45:04.061Z,6.00
2022-09-07T01:47:55.260Z,6.37
2022-09-07T01:50:45.005Z,6.07
2022-09-07T01:53:36.073Z,6.17
2022-09-07T01:56:28.827Z,6.67
2022-09-07T01:59:20.685Z,6.43
2022-09-07T02:02:10.800Z,6.17
2022-09-07T02:05:02.408Z,6.23
2022-09-07T02:07:53.047Z,6.03
2022-09-07T02:10:43.824Z,6.33
2022-09-07T02:13:35.000Z,6.03
2022-09-07T02:16:25.078Z,6.77
2022-09-07T02:19:17.239Z,6.27
2022-09-07T02:22:09.695Z,6.53
2022-09-07T02:24:59.377Z,6.07
2022-09-07T02:27:49.012Z,6.40
2022-09-07T02:30:35.619Z,6.73
2022-09-07T02:33:23.348Z,5.87
2022-09-07T02:36:13.647Z,6.13
2022-09-07T02:39:00.212Z,6.60
2022-09-07T02:41:47.479Z,6.20
2022-09-07T02:44:38.231Z,7.00
2022-09-07T02:47:33.500Z,6.80
2022-09-07T02:50:38.889Z,6.47
2022-09-07T02:53:56.840Z,6.60
2022-09-07T02:56:55.520Z,6.57
2022-09-07T02:59:52.171Z,6.30
2022-09-07T03:02:52.347Z,6.93
2022-09-07T03:05:43.922Z,5.90
2022-09-07T03:08:37.120Z,6.63
2022-09-07T03:11:24.186Z,6.57
2022-09-07T03:14:18.953Z,6.90
2022-09-07T03:17:05.537Z,6.57
2022-09-07T03:19:51.862Z,6.60
2022-09-07T03:22:38.487Z,7.13
2022-09-07T03:25:26.408Z,6.70
2022-09-07T03:28:13.153Z,7.07
2022-09-07T03:30:59.756Z,7.50
2022-09-07T03:33:46.513Z,7.03
2022-09-07T03:36:33.512Z,6.90
2022-09-07T03:39:22.600Z,7.20
2022-09-07T03:42:10.673Z,6.50
2022-09-07T03:44:57.290Z,6.67
2022-09-07T03:47:44.610Z,6.80
2022-09-07T03:50:31.055Z,6.70
2022-09-07T03:53:17.348Z,7.23
2022-09-07T03:56:06.247Z,7.53
2022-09-07T03:58:55.305Z,6.87
2022-09-07T04:01:42.180Z,7.33
2022-09-07T04:04:29.023Z,6.77
2022-09-07T04:07:16.019Z,7.80
2022-09-07T04:10:02.715Z,8.10
2022-09-07T04:12:48.955Z,7.10
2022-09-07T04:15:37.232Z,7.10
2022-09-07T04:18:24.981Z,6.83
2022-09-07T04:21:12.579Z,7.60
2022-09-07T04:23:59.775Z,6.33
2022-09-07T04:26:46.604Z,8.10
2022-09-07T04:29:33.205Z,7.83
2022-09-07T04:32:20.880Z,7.27
2022-09-07T04:35:08.865Z,7.40
2022-09-07T04:37:55.850Z,7.23
2022-09-07T04:40:42.574Z,7.37
2022-09-07T04:43:29.479Z,7.23
2022-09-07T04:46:20.434Z,8.37
2022-09-07T04:49:10.151Z,7.60
2022-09-07T04:51:56.923Z,7.57
2022-09-07T04:54:43.435Z,8.73
2022-09-07T04:57:30.079Z,8.13
2022-09-07T05:00:17.074Z,7.97
2022-09-07T05:03:03.280Z,8.70
2022-09-07T05:05:51.084Z,8.93
2022-09-07T05:08:38.860Z,8.60
2022-09-07T05:11:29.466Z,8.63
2022-09-07T05:14:16.311Z,8.00
2022-09-07T05:17:02.680Z,8.50
2022-09-07T05:19:49.759Z,8.87
2022-09-07T05:22:41.015Z,9.43
2022-09-07T05:25:29.077Z,8.60
2022-09-07T05:28:19.278Z,9.00
2022-09-07T05:31:22.982Z,9.30
2022-09-07T05:37:16.759Z,8.73
2022-09-07T05:40:05.691Z,8.67
2022-09-07T05:42:52.678Z,8.47
2022-09-07T05:45:39.354Z,7.43
2022-09-07T05:48:26.031Z,7.97
2022-09-07T05:51:13.252Z,8.13
2022-09-07T05:53:59.872Z,8.13
2022-09-07T05:56:47.729Z,7.77
2022-09-07T05:59:34.174Z,8.17
2022-09-07T06:02:20.800Z,7.97
2022-09-07T06:05:08.583Z,8.50
2022-09-07T06:07:54.826Z,8.90
2022-09-07T06:13:34.212Z,8.83
2022-09-07T06:16:21.320Z,8.97
2022-09-07T06:19:09.112Z,8.27
2022-09-07T06:21:55.657Z,9.00
2022-09-07T06:24:42.152Z,9.13
2022-09-07T06:27:29.393Z,9.17
2022-09-07T06:30:17.639Z,9.33
2022-09-07T06:33:04.540Z,9.87
2022-09-07T06:35:56.957Z,9.17
2022-09-07T06:38:44.811Z,9.63
2022-09-07T06:44:38.930Z,9.43
2022-09-07T06:47:26.736Z,9.90
2022-09-07T06:50:13.515Z,9.30
2022-09-07T06:56:08.960Z,8.30
2022-09-07T06:58:55.966Z,8.70
2022-09-07T07:01:42.584Z,9.10
2022-09-07T07:04:30.518Z,8.60
2022-09-07T07:07:17.224Z,8.30
2022-09-07T07:10:03.572Z,8.50
2022-09-07T07:12:49.965Z,8.30
2022-09-07T07:15:36.299Z,8.40
2022-09-07T07:18:22.733Z,7.93
2022-09-07T07:21:12.217Z,7.00
2022-09-07T07:23:58.979Z,6.93
2022-09-07T07:26:48.670Z,6.90
2022-09-07T07:29:35.133Z,6.63
2022-09-07T07:32:21.720Z,6.37
2022-09-07T07:35:09.211Z,6.97
2022-09-07T07:44:10.815Z,5.17
2022-09-07T07:46:57.390Z,5.97
2022-09-07T07:49:44.127Z,6.07
2022-09-07T07:55:43.631Z,5.83
2022-09-07T07:58:31.983Z,5.47
2022-09-07T08:01:19.098Z,5.60
2022-09-07T08:04:05.937Z,4.87
2022-09-07T08:06:52.396Z,4.90
2022-09-07T08:09:40.055Z,4.87
2022-09-07T08:12:29.831Z,4.87
2022-09-07T08:15:16.821Z,4.93
2022-09-07T08:18:03.771Z,4.40
2022-09-07T08:20:50.193Z,3.37
2022-09-07T08:23:37.219Z,3.77
2022-09-07T08:26:23.456Z,2.97
2022-09-07T08:29:11.292Z,3.40
2022-09-07T08:31:57.796Z,3.13
2022-09-07T08:34:44.583Z,2.77
2022-09-07T08:37:31.045Z,3.30
2022-09-07T08:40:18.337Z,3.03
2022-09-07T08:43:13.027Z,2.90
2022-09-07T08:46:07.200Z,3.00
2022-09-07T08:48:55.277Z,2.73
2022-09-07T08:51:48.567Z,2.87
2022-09-07T08:54:35.513Z,2.40
2022-09-07T08:57:28.010Z,2.47
2022-09-07T09:00:16.443Z,2.50
2022-09-07T09:06:23.632Z,2.60
2022-09-07T09:09:20.369Z,2.47
2022-09-07T09:12:17.028Z,2.80
2022-09-07T09:15:17.610Z,3.10
2022-09-07T09:18:14.858Z,2.50
2022-09-07T09:21:01.891Z,2.37
2022-09-07T09:23:52.128Z,2.47
2022-09-07T09:26:40.020Z,2.37
2022-09-07T09:29:26.981Z,2.50
2022-09-07T09:32:34.022Z,2.00
2022-09-07T09:35:30.023Z,2.20
2022-09-07T09:38:32.364Z,1.97
2022-09-07T09:41:19.442Z,2.73
2022-09-07T09:44:06.325Z,2.37
2022-09-07T09:50:06.297Z,2.13
2022-09-07T09:52:54.896Z,2.70
2022-09-07T09:55:42.487Z,2.40
2022-09-07T10:04:45.014Z,2.13
2022-09-07T10:07:32.559Z,2.10
2022-09-07T10:10:20.522Z,2.50
2022-09-07T10:13:08.824Z,2.50
2022-09-07T10:15:57.568Z,2.00
2022-09-07T10:18:56.837Z,1.97
2022-09-07T10:21:45.828Z,1.93
2022-09-07T10:24:39.138Z,2.20
2022-09-07T10:27:35.910Z,2.47
2022-09-07T10:30:22.335Z,2.30
2022-09-07T10:33:15.380Z,2.37
2022-09-07T10:36:06.892Z,2.37
2022-09-07T10:39:01.028Z,1.97
2022-09-07T10:41:55.824Z,2.17
2022-09-07T10:44:57.035Z,2.50
2022-09-07T10:47:52.974Z,2.40
2022-09-07T10:50:46.696Z,2.70
2022-09-07T10:53:43.438Z,2.17
2022-09-07T10:56:36.567Z,2.43
2022-09-07T11:06:15.084Z,2.37
2022-09-07T11:09:16.458Z,1.90
2022-09-07T11:12:08.053Z,1.77
2022-09-07T11:14:59.435Z,1.87
2022-09-07T11:17:53.004Z,2.00
2022-09-07T11:20:46.249Z,1.70
2022-09-07T11:23:40.968Z,1.60
2022-09-07T11:26:33.211Z,1.50
2022-09-07T11:29:29.767Z,1.30
2022-09-07T11:32:22.264Z,1.20
2022-09-07T11:35:20.151Z,1.33
2022-09-07T11:38:17.825Z,1.00
2022-09-07T11:41:22.159Z,1.30
2022-09-07T11:44:16.270Z,1.40
2022-09-07T11:47:09.358Z,1.40
2022-09-07T11:49:59.402Z,1.50
2022-09-07T11:52:53.537Z,1.80
2022-09-07T11:55:45.127Z,1.60
2022-09-07T11:58:46.396Z,1.67
2022-09-07T12:01:45.177Z,1.57
2022-09-07T12:04:43.435Z,1.77
2022-09-07T12:08:03.949Z,1.63
2022-09-07T12:11:05.771Z,1.60
2022-09-07T12:14:17.235Z,1.77
2022-09-07T12:17:24.709Z,1.87
2022-09-07T12:20:14.357Z,1.77
2022-09-07T12:23:05.778Z,1.70
2022-09-07T12:25:53.394Z,1.73
2022-09-07T12:29:05.615Z,1.50
2022-09-07T12:31:59.574Z,1.70
2022-09-07T12:34:55.515Z,2.23
2022-09-07T12:37:43.360Z,1.90
2022-09-07T12:40:59.894Z,1.93
2022-09-07T12:43:54.316Z,2.10
2022-09-07T12:46:49.970Z,1.80
2022-09-07T12:50:19.549Z,1.90
2022-09-07T12:53:26.034Z,2.00
2022-09-07T12:56:32.552Z,1.70
2022-09-07T12:59:46.646Z,1.90
2022-09-07T13:02:56.743Z,1.83
2022-09-07T13:05:57.955Z,1.60
2022-09-07T13:09:01.013Z,1.90
2022-09-07T13:11:49.153Z,1.67
2022-09-07T13:14:39.416Z,1.70
2022-09-07T13:17:44.016Z,1.60
2022-09-07T13:20:36.125Z,1.60
2022-09-07T13:23:26.735Z,1.97
2022-09-07T13:26:36.426Z,1.70
2022-09-07T13:29:30.875Z,1.53
2022-09-07T13:33:08.084Z,1.60
2022-09-07T13:35:33.011Z,1.80
2022-09-07T13:38:20.543Z,1.83
2022-09-07T13:41:13.808Z,1.90
2022-09-07T13:44:02.315Z,1.90
2022-09-07T13:47:09.107Z,1.83
2022-09-07T13:50:05.560Z,2.47
2022-09-07T13:53:08.250Z,2.17
2022-09-07T13:56:00.306Z,2.20
2022-09-07T13:58:49.689Z,2.07
2022-09-07T14:01:36.435Z,2.80
2022-09-07T14:04:27.744Z,2.30
2022-09-07T14:07:16.479Z,2.90
2022-09-07T14:10:11.496Z,2.80
2022-09-07T14:13:08.268Z,3.03
2022-09-07T14:15:55.356Z,2.87
2022-09-07T14:18:41.830Z,2.97
2022-09-07T14:21:29.784Z,3.30
2022-09-07T14:24:24.545Z,3.00
2022-09-07T14:27:22.218Z,3.07
2022-09-07T14:30:28.345Z,2.80
2022-09-07T14:33:17.999Z,3.40
2022-09-07T14:36:23.350Z,2.80
2022-09-07T14:39:15.241Z,3.17
2022-09-07T14:42:03.837Z,3.27
2022-09-07T14:44:53.296Z,2.83
2022-09-07T14:47:40.711Z,2.60
2022-09-07T14:50:34.113Z,3.70
2022-09-07T14:53:36.853Z,3.30
2022-09-07T14:56:29.585Z,3.37
2022-09-07T14:59:35.527Z,3.60
2022-09-07T15:02:36.930Z,3.47
2022-09-07T15:05:26.943Z,3.40
2022-09-07T15:08:20.730Z,3.10
2022-09-07T15:14:21.776Z,4.23
2022-09-07T15:20:43.282Z,3.93
2022-09-07T15:23:30.143Z,4.10
2022-09-07T15:29:25.012Z,4.73
2022-09-07T15:32:11.641Z,5.03
2022-09-07T15:34:57.941Z,4.07
2022-09-07T15:41:20.866Z,4.53
2022-09-07T15:44:00.715Z,4.60
2022-09-07T15:49:55.637Z,4.97
2022-09-07T15:52:42.753Z,5.33
2022-09-07T15:55:32.425Z,4.30
2022-09-07T15:58:18.764Z,5.53
2022-09-07T16:04:15.901Z,5.40
2022-09-07T16:07:02.373Z,5.77
2022-09-07T16:09:52.406Z,5.67
2022-09-07T16:15:47.466Z,6.47
2022-09-07T16:18:35.157Z,5.77
2022-09-07T16:21:26.310Z,6.03
2022-09-07T16:24:13.162Z,6.00
2022-09-07T16:26:59.529Z,6.37
2022-09-07T16:29:46.062Z,5.97
2022-09-07T16:32:48.147Z,6.53
2022-09-07T16:35:35.011Z,6.10
2022-09-07T16:41:31.623Z,5.87
2022-09-07T16:44:18.103Z,6.67
2022-09-07T16:47:05.194Z,7.03
2022-09-07T16:49:51.772Z,6.97
2022-09-07T16:52:38.434Z,6.53
2022-09-07T16:55:26.214Z,6.93
2022-09-07T17:01:21.555Z,6.10
2022-09-07T17:04:11.200Z,7.70
2022-09-07T17:06:58.396Z,6.63
2022-09-07T17:09:44.739Z,6.90
2022-09-07T17:12:32.544Z,6.87
2022-09-07T17:15:18.968Z,7.00
2022-09-07T17:18:05.409Z,7.23
2022-09-07T17:20:56.686Z,7.50
2022-09-07T17:23:51.967Z,7.60
2022-09-07T17:26:42.762Z,7.17
2022-09-07T17:29:37.077Z,8.17
2022-09-07T17:32:25.068Z,7.60
2022-09-07T17:35:12.287Z,7.37
2022-09-07T17:38:00.883Z,6.70
2022-09-07T17:40:47.853Z,6.07
2022-09-07T17:43:45.214Z,5.27
2022-09-07T17:46:33.584Z,5.43
2022-09-07T17:49:19.986Z,4.70
2022-09-07T17:52:06.506Z,4.50
2022-09-07T17:54:55.379Z,4.97
2022-09-07T17:57:41.987Z,4.73
2022-09-07T18:00:28.509Z,3.87
2022-09-07T18:03:16.590Z,4.63
2022-09-07T18:06:03.912Z,4.07
2022-09-07T18:08:50.405Z,4.17
2022-09-07T18:11:45.749Z,3.80
2022-09-07T18:14:33.627Z,3.77
2022-09-07T18:17:19.948Z,4.10
2022-09-07T18:20:09.533Z,3.67
2022-09-07T18:22:57.578Z,3.73
2022-09-07T18:25:46.206Z,3.90
2022-09-07T18:31:39.548Z,4.50
2022-09-07T18:34:25.932Z,3.87
2022-09-07T18:37:14.098Z,4.40
2022-09-07T18:40:01.037Z,3.67
2022-09-07T18:42:48.194Z,3.90
2022-09-07T18:45:34.710Z,4.00
2022-09-07T18:48:21.343Z,3.87
2022-09-07T18:51:09.677Z,4.17
2022-09-07T18:53:58.544Z,3.50
2022-09-07T18:56:45.283Z,3.93
2022-09-07T18:59:31.528Z,4.07
2022-09-07T19:02:18.979Z,3.60
2022-09-07T19:08:13.124Z,4.23
2022-09-07T19:11:06.900Z,4.43
2022-09-07T19:13:57.423Z,4.23
2022-09-07T19:16:45.305Z,4.00
2022-09-07T19:19:34.248Z,3.67
2022-09-07T19:22:20.536Z,4.20
2022-09-07T19:25:07.555Z,3.87
2022-09-07T19:27:55.752Z,4.03
2022-09-07T19:30:42.481Z,4.10
2022-09-07T19:33:29.150Z,5.30
2022-09-07T19:36:16.055Z,5.53
2022-09-07T19:39:02.934Z,4.57
2022-09-07T19:41:49.558Z,4.57
2022-09-07T19:44:37.449Z,4.57
2022-09-07T19:47:24.265Z,4.60
2022-09-07T19:50:10.881Z,4.57
2022-09-07T19:52:57.291Z,4.47
2022-09-07T19:55:44.607Z,4.63
2022-09-07T19:58:33.992Z,4.60
2022-09-07T20:01:24.920Z,5.30
2022-09-07T20:04:18.972Z,4.90
2022-09-07T20:07:06.746Z,4.87
2022-09-07T20:09:53.334Z,4.77
2022-09-07T20:12:40.097Z,4.43
2022-09-07T20:15:27.265Z,4.67
2022-09-07T20:18:15.253Z,5.17
2022-09-07T20:21:04.904Z,4.43
2022-09-07T20:23:51.487Z,4.57
2022-09-07T20:26:38.117Z,5.20
2022-09-07T20:29:27.753Z,4.83
2022-09-07T20:32:16.830Z,4.77
2022-09-07T20:35:04.972Z,4.87
2022-09-07T20:37:51.444Z,5.80
2022-09-07T20:40:38.017Z,5.23
2022-09-07T20:43:24.920Z,5.70
2022-09-07T20:46:11.273Z,5.33
2022-09-07T20:48:57.656Z,5.17
2022-09-07T20:51:45.421Z,5.07
2022-09-07T20:54:32.570Z,5.10
2022-09-07T20:57:19.191Z,4.83
2022-09-07T21:00:06.828Z,5.60
2022-09-07T21:02:53.339Z,5.10
2022-09-07T21:05:39.720Z,5.27
2022-09-07T21:08:27.621Z,5.80
2022-09-07T21:11:16.469Z,5.60
2022-09-07T21:14:06.951Z,5.13
2022-09-07T21:16:53.309Z,4.70
2022-09-07T21:19:39.776Z,5.67
2022-09-07T21:22:26.036Z,5.80
2022-09-07T21:25:14.511Z,5.70
2022-09-07T21:28:01.236Z,5.73
2022-09-07T21:30:57.122Z,5.60
2022-09-07T21:33:43.989Z,6.13
2022-09-07T21:36:31.348Z,5.30
2022-09-07T21:39:18.077Z,5.83
2022-09-07T21:42:06.263Z,6.20
2022-09-07T21:44:52.763Z,5.97
2022-09-07T21:47:39.087Z,5.67
2022-09-07T21:50:25.481Z,5.17
2022-09-07T21:53:12.707Z,6.03
2022-09-07T21:56:00.513Z,6.20
2022-09-07T21:58:49.156Z,6.50
2022-09-07T22:01:35.905Z,6.30
2022-09-07T22:04:22.168Z,6.20
2022-09-07T22:07:08.657Z,6.90
2022-09-07T22:09:55.109Z,6.00
2022-09-07T22:12:41.477Z,7.23
2022-09-07T22:15:31.172Z,6.43
2022-09-07T22:18:17.915Z,6.70
2022-09-07T22:21:06.989Z,6.63
2022-09-07T22:23:56.780Z,7.43
2022-09-07T22:26:43.285Z,7.13
2022-09-07T22:29:29.757Z,7.20
2022-09-07T22:32:17.760Z,8.10
2022-09-07T22:35:04.168Z,8.03
2022-09-07T22:37:50.441Z,8.23
2022-09-07T22:40:36.823Z,7.57
2022-09-07T22:43:23.136Z,6.93
2022-09-07T22:46:10.351Z,8.17
2022-09-07T22:48:59.529Z,7.90
2022-09-07T22:51:46.736Z,7.90
2022-09-07T22:54:33.331Z,7.23
2022-09-07T22:57:19.767Z,8.60
2022-09-07T23:00:07.474Z,8.47
2022-09-07T23:02:54.051Z,8.87
2022-09-07T23:05:41.799Z,7.77
2022-09-07T23:08:29.244Z,9.10
2022-09-07T23:11:15.908Z,8.80
2022-09-07T23:14:05.159Z,9.20
2022-09-07T23:16:51.787Z,8.57
2022-09-07T23:19:38.815Z,8.50
2022-09-07T23:22:26.752Z,8.60
2022-09-07T23:25:13.200Z,8.03
2022-09-07T23:27:59.666Z,8.60
2022-09-07T23:30:48.181Z,9.50
2022-09-07T23:33:34.994Z,8.77
2022-09-07T23:36:21.900Z,8.23
2022-09-07T23:39:09.600Z,8.87
2022-09-07T23:41:56.013Z,8.83
2022-09-07T23:44:42.457Z,8.77
2022-09-07T23:47:28.747Z,8.90
2022-09-07T23:50:15.124Z,9.27
2022-09-07T23:53:01.933Z,9.40
2022-09-07T23:55:51.568Z,8.87
2022-09-07T23:58:37.807Z,8.50
